Time;durP1;ratioP1;P1;durP2;ratioP2;P2;SDS_P1;SDS_P2;PMS_P1;PMS_P2;Temp;Humidity;BMP_temperature;BMP_pressure;BME280_temperature;BME280_humidity;BME280_pressure;Samples;Min_cycle;Max_cycle;Signal;HPM_P1;HPM_P2
2023/12/16 00:01:39;;;;;;;15.57;3.13;;;9.00;99.90;;;;;;4978621;28;38433;-81
2023/12/16 00:04:06;;;;;;;16.97;3.13;;;9.00;99.90;;;;;;4971281;28;38049;-81
2023/12/16 00:06:32;;;;;;;11.87;2.67;;;8.90;99.90;;;;;;4978521;28;35900;-81
2023/12/16 00:09:00;;;;;;;17.33;3.03;;;8.90;99.90;;;;;;4994495;28;40143;-80
2023/12/16 00:11:27;;;;;;;15.67;3.00;;;9.00;99.90;;;;;;4970350;28;37655;-81
2023/12/16 00:13:53;;;;;;;15.90;3.33;;;9.00;99.90;;;;;;4964667;28;37278;-81
2023/12/16 00:16:19;;;;;;;20.23;3.70;;;9.00;99.90;;;;;;4970697;28;37747;-81
2023/12/16 00:18:52;;;;;;;15.93;3.73;;;9.10;99.90;;;;;;4966219;28;37765;-81
2023/12/16 00:21:19;;;;;;;17.43;3.93;;;9.00;99.90;;;;;;4961476;28;37838;-81
2023/12/16 00:23:46;;;;;;;22.20;3.60;;;9.00;99.90;;;;;;4961773;28;37775;-81
2023/12/16 00:26:12;;;;;;;21.07;4.47;;;9.00;99.90;;;;;;4986341;28;38354;-80
2023/12/16 00:28:39;;;;;;;16.33;4.63;;;9.00;99.90;;;;;;4967469;28;38925;-81
2023/12/16 00:31:06;;;;;;;16.60;4.03;;;9.00;99.90;;;;;;4970331;28;38127;-81
2023/12/16 00:33:32;;;;;;;15.17;3.70;;;9.00;99.90;;;;;;4969267;28;38796;-81
2023/12/16 00:35:59;;;;;;;19.37;4.17;;;9.00;99.90;;;;;;4976691;28;35885;-81
2023/12/16 00:38:27;;;;;;;20.23;3.77;;;8.90;99.90;;;;;;4961859;28;37530;-80
2023/12/16 00:40:54;;;;;;;14.93;4.23;;;8.80;99.90;;;;;;4964925;28;38798;-80
2023/12/16 00:43:20;;;;;;;20.00;4.33;;;8.80;99.90;;;;;;4960889;28;38112;-80
2023/12/16 00:45:47;;;;;;;15.47;4.23;;;8.60;99.90;;;;;;4970949;28;36697;-81
2023/12/16 00:48:13;;;;;;;20.87;4.63;;;8.60;99.90;;;;;;4962647;28;37487;-81
2023/12/16 00:50:42;;;;;;;21.63;5.70;;;8.50;99.90;;;;;;4952704;28;39796;-81
2023/12/16 00:53:08;;;;;;;19.20;5.20;;;8.40;99.90;;;;;;4958092;28;37226;-80
2023/12/16 00:55:36;;;;;;;23.90;4.63;;;8.40;99.90;;;;;;4993037;28;36993;-81
2023/12/16 00:58:09;;;;;;;18.73;5.03;;;8.40;99.90;;;;;;4963245;28;38051;-81
2023/12/16 01:00:36;;;;;;;18.70;5.37;;;8.40;99.90;;;;;;4978957;28;38130;-81
2023/12/16 01:03:03;;;;;;;19.77;4.70;;;8.30;99.90;;;;;;4959508;28;37945;-81
2023/12/16 01:05:30;;;;;;;22.27;4.97;;;8.30;99.90;;;;;;4976596;28;37230;-80
2023/12/16 01:07:58;;;;;;;17.93;6.40;;;8.20;99.90;;;;;;4960128;28;40705;-80
2023/12/16 01:10:24;;;;;;;17.03;4.97;;;8.20;99.90;;;;;;4962647;28;38450;-81
2023/12/16 01:12:51;;;;;;;19.00;4.77;;;8.20;99.90;;;;;;4989521;28;38910;-81
2023/12/16 01:15:17;;;;;;;27.27;6.03;;;8.20;99.90;;;;;;4983627;28;37702;-81
2023/12/16 01:17:44;;;;;;;21.73;6.07;;;8.10;99.90;;;;;;4984277;28;38968;-80
2023/12/16 01:20:11;;;;;;;16.77;4.97;;;8.10;99.90;;;;;;4973728;28;38545;-80
2023/12/16 01:22:37;;;;;;;17.37;5.10;;;8.10;99.90;;;;;;4968493;28;39063;-81
2023/12/16 01:25:05;;;;;;;25.53;5.77;;;8.10;99.90;;;;;;4971637;28;37231;-80
2023/12/16 01:27:32;;;;;;;19.93;4.87;;;8.00;99.90;;;;;;4975092;28;48933;-81
2023/12/16 01:29:58;;;;;;;23.63;5.97;;;8.00;99.90;;;;;;4967607;28;38054;-81
2023/12/16 01:32:25;;;;;;;17.43;5.20;;;8.00;99.90;;;;;;4975277;28;39700;-81
2023/12/16 01:34:51;;;;;;;23.10;5.60;;;7.90;99.90;;;;;;4990584;28;37414;-81
2023/12/16 01:37:18;;;;;;;21.90;5.77;;;7.90;99.90;;;;;;4976748;28;38958;-80
2023/12/16 01:39:44;;;;;;;20.93;5.77;;;7.90;99.90;;;;;;4973247;28;39324;-81
2023/12/16 01:42:11;;;;;;;19.87;5.70;;;7.90;99.90;;;;;;4964188;28;38537;-80
2023/12/16 01:44:37;;;;;;;20.20;6.17;;;7.90;99.90;;;;;;4973582;28;36546;-81
2023/12/16 01:47:05;;;;;;;24.27;5.97;;;7.90;99.90;;;;;;4971653;28;37921;-80
2023/12/16 01:49:32;;;;;;;22.90;5.73;;;7.90;99.90;;;;;;4959758;28;40400;-81
2023/12/16 01:52:00;;;;;;;29.47;6.50;;;7.90;99.90;;;;;;4970933;28;38031;-81
2023/12/16 01:54:27;;;;;;;23.53;5.70;;;7.90;99.90;;;;;;4958232;28;40848;-81
2023/12/16 01:56:58;;;;;;;23.47;6.50;;;7.90;99.90;;;;;;4984263;28;38889;-81
2023/12/16 01:59:27;;;;;;;23.93;6.60;;;7.90;99.90;;;;;;4966556;28;38847;-81
2023/12/16 13:33:48;;;;;;;10.07;6.03;;;10.40;99.90;;;;;;6052580;23;21313;31
2023/12/16 14:10:10;;;;;;;9.17;3.57;;;10.70;99.90;;;;;;5904134;23;20050;-84
2023/12/16 16:04:54;;;;;;;41.33;24.03;;;10.70;99.90;;;;;;5005796;23;20059;-80
2023/12/16 16:18:07;;;;;;;37.63;21.93;;;10.70;99.90;;;;;;5422432;23;20051;-80
2023/12/16 16:20:43;;;;;;;30.37;20.80;;;10.70;99.90;;;;;;4937645;29;39083;-82
2023/12/16 16:31:10;;;;;;;27.03;18.03;;;10.80;99.90;;;;;;5969966;23;20023;-83
2023/12/16 16:57:05;;;;;;;16.70;10.20;;;10.90;99.90;;;;;;5680119;23;20036;-81
2023/12/16 17:13:38;;;;;;;16.43;9.13;;;10.90;99.90;;;;;;5336129;23;20207;-80
2023/12/16 17:27:17;;;;;;;11.90;8.73;;;11.00;99.90;;;;;;5320366;23;19903;-80
2023/12/16 17:29:52;;;;;;;16.33;8.80;;;11.00;99.90;;;;;;5082552;27;20411;-82
2023/12/16 17:32:19;;;;;;;25.17;11.37;;;11.00;99.90;;;;;;5064167;28;36409;-82
2023/12/16 17:34:46;;;;;;;17.00;11.17;;;11.00;99.90;;;;;;5066592;28;37165;-81
2023/12/16 17:37:15;;;;;;;21.13;12.13;;;11.00;99.90;;;;;;5069550;28;40131;-82
2023/12/16 17:39:41;;;;;;;22.47;12.37;;;11.00;99.90;;;;;;5073976;28;37097;-82
2023/12/16 17:42:08;;;;;;;20.23;12.60;;;11.00;99.90;;;;;;5072801;28;39813;-82
2023/12/16 17:44:34;;;;;;;18.50;11.93;;;11.00;99.90;;;;;;5070580;28;37410;-81
2023/12/16 17:47:00;;;;;;;20.10;12.33;;;11.00;99.90;;;;;;5077160;28;37772;-80
2023/12/16 17:49:26;;;;;;;21.83;13.30;;;10.90;99.90;;;;;;5070936;28;37925;-81
2023/12/16 17:51:55;;;;;;;24.23;13.13;;;10.90;99.90;;;;;;5073408;28;36990;-80
2023/12/16 17:54:21;;;;;;;19.73;12.77;;;10.90;99.90;;;;;;5072077;27;38812;-81
2023/12/16 17:56:48;;;;;;;21.17;13.17;;;10.90;99.90;;;;;;5073809;28;38373;-82
2023/12/16 17:59:16;;;;;;;23.50;11.87;;;10.90;99.90;;;;;;5073953;28;37600;-81
2023/12/16 18:01:46;;;;;;;22.10;11.57;;;10.90;99.90;;;;;;5078539;28;37289;-82
2023/12/16 18:04:13;;;;;;;21.43;12.30;;;11.00;99.90;;;;;;5056655;28;36875;-83
2023/12/16 18:06:39;;;;;;;17.57;10.77;;;11.00;99.90;;;;;;5069951;28;40754;-82
2023/12/16 18:09:08;;;;;;;20.53;11.00;;;11.00;99.90;;;;;;5072781;27;38732;-82
2023/12/16 18:11:44;;;;;;;18.00;10.57;;;11.00;99.90;;;;;;5072907;28;38993;-81
2023/12/16 18:14:10;;;;;;;18.13;10.67;;;11.00;99.90;;;;;;5069240;28;36807;-82
2023/12/16 18:16:39;;;;;;;20.80;11.25;;;11.00;99.90;;;;;;5070982;28;37926;-81
2023/12/16 18:19:05;;;;;;;14.60;8.70;;;11.00;99.90;;;;;;5070694;28;41128;-81
2023/12/16 18:21:35;;;;;;;18.58;9.73;;;11.00;99.90;;;;;;5068203;28;36830;-81
2023/12/16 18:24:01;;;;;;;20.47;9.40;;;11.00;99.90;;;;;;5072916;27;36179;-80
2023/12/16 18:26:27;;;;;;;16.37;9.13;;;11.10;99.90;;;;;;5069250;28;48477;-80
2023/12/16 18:28:53;;;;;;;15.53;7.80;;;11.00;99.90;;;;;;5070113;28;37417;-80
2023/12/16 18:31:19;;;;;;;14.37;8.10;;;11.00;99.90;;;;;;5072729;28;37527;-79
2023/12/16 18:33:45;;;;;;;15.73;8.00;;;11.00;99.90;;;;;;5074970;28;38627;-80
2023/12/16 18:36:13;;;;;;;15.40;8.10;;;11.00;99.90;;;;;;5073895;28;38553;-81
2023/12/16 18:38:42;;;;;;;20.77;8.57;;;11.00;99.90;;;;;;5067332;28;37541;-81
2023/12/16 18:41:09;;;;;;;17.30;8.43;;;11.00;99.90;;;;;;5056110;28;36895;-81
2023/12/16 18:43:46;;;;;;;;;;;;;;;;;;;;;
2023/12/16 18:46:29;;;;;;;16.43;8.57;;;11.00;99.90;;;;;;5058139;28;39686;-82
2023/12/16 18:48:55;;;;;;;15.40;8.27;;;11.00;99.90;;;;;;5064505;28;39708;-81
2023/12/16 18:51:21;;;;;;;14.37;7.70;;;11.00;99.90;;;;;;5073612;28;39847;-81
2023/12/16 18:53:50;;;;;;;13.50;8.03;;;11.00;99.90;;;;;;5063471;28;37167;-83
2023/12/16 18:56:16;;;;;;;14.60;8.03;;;11.00;99.90;;;;;;5077008;28;37783;-82
2023/12/16 18:58:50;;;;;;;17.00;8.77;;;11.00;99.90;;;;;;5053901;28;38063;-81
2023/12/16 19:01:16;;;;;;;16.57;8.30;;;10.90;99.90;;;;;;5058886;28;36974;-83
2023/12/16 19:03:49;;;;;;;19.97;8.83;;;10.90;99.90;;;;;;5066564;28;36077;-82
2023/12/16 19:06:18;;;;;;;17.15;8.23;;;10.90;99.90;;;;;;5058618;28;39280;-82
2023/12/16 19:08:44;;;;;;;16.20;8.30;;;10.90;99.90;;;;;;5049615;28;39100;-83
2023/12/16 19:11:11;;;;;;;16.43;7.87;;;10.90;99.90;;;;;;5064111;28;38115;-82
2023/12/16 19:13:41;;;;;;;14.80;8.23;;;10.90;99.90;;;;;;5056844;28;37168;-82
2023/12/16 19:16:08;;;;;;;17.53;8.83;;;10.90;99.90;;;;;;5062750;28;38508;-81
2023/12/16 19:18:34;;;;;;;23.53;10.53;;;10.90;99.90;;;;;;5063130;28;38458;-82
2023/12/16 19:21:00;;;;;;;21.40;9.87;;;10.90;99.90;;;;;;5063021;28;37762;-82
2023/12/16 19:23:26;;;;;;;22.10;9.80;;;10.90;99.90;;;;;;5057224;28;36498;-82
2023/12/16 19:25:52;;;;;;;20.13;10.00;;;11.00;99.90;;;;;;5063602;28;39343;-81
2023/12/16 19:28:18;;;;;;;21.37;10.03;;;10.90;99.90;;;;;;5059734;28;38638;-80
2023/12/16 19:30:45;;;;;;;21.75;10.52;;;10.90;99.90;;;;;;5060859;28;37770;-80
2023/12/16 19:33:11;;;;;;;23.77;10.03;;;10.90;99.90;;;;;;5058815;28;37268;-81
2023/12/16 19:35:38;;;;;;;20.23;9.68;;;10.90;99.90;;;;;;5060742;28;38824;-78
2023/12/16 19:38:10;;;;;;;24.70;10.93;;;10.90;99.90;;;;;;5055475;28;38768;-80
2023/12/16 19:40:39;;;;;;;30.17;12.23;;;11.00;99.90;;;;;;5058993;28;37483;-81
2023/12/16 19:43:13;;;;;;;25.43;12.23;;;11.00;99.90;;;;;;5052400;28;36026;-81
2023/12/16 19:45:39;;;;;;;20.63;11.77;;;11.00;99.90;;;;;;5073571;28;39269;-82
2023/12/16 19:48:05;;;;;;;18.33;8.27;;;11.00;99.90;;;;;;5063308;28;38677;-80
2023/12/16 19:50:32;;;;;;;24.63;10.50;;;10.90;99.90;;;;;;5063132;28;37578;-80
2023/12/16 19:52:58;;;;;;;19.57;9.77;;;10.90;99.90;;;;;;5060233;28;38428;-80
2023/12/16 19:55:24;;;;;;;24.33;11.37;;;10.90;99.90;;;;;;5062290;28;39638;-81
2023/12/16 19:57:50;;;;;;;20.33;8.87;;;11.00;99.90;;;;;;5065366;28;38750;-80
2023/12/16 20:00:17;;;;;;;13.63;9.27;;;11.00;99.90;;;;;;5059250;28;37572;-81
2023/12/16 20:02:43;;;;;;;20.70;10.30;;;11.00;99.90;;;;;;5061765;28;37296;-81
2023/12/16 20:05:09;;;;;;;14.03;7.97;;;10.90;99.90;;;;;;5062495;28;38144;-80
2023/12/16 20:07:37;;;;;;;19.77;7.27;;;10.90;99.90;;;;;;5063792;28;38020;-80
2023/12/16 20:10:05;;;;;;;19.40;8.47;;;10.90;99.90;;;;;;5061244;28;38064;-80
2023/12/16 20:12:31;;;;;;;21.27;8.83;;;10.90;99.90;;;;;;5063203;28;47440;-80
2023/12/16 20:15:00;;;;;;;18.73;8.93;;;11.00;99.90;;;;;;5064931;28;39312;-80
2023/12/16 20:17:26;;;;;;;19.83;7.80;;;11.00;99.90;;;;;;5059272;28;37649;-80
2023/12/16 20:19:53;;;;;;;22.87;8.97;;;10.90;99.90;;;;;;5059506;28;36960;-79
2023/12/16 20:22:21;;;;;;;16.57;7.97;;;10.90;99.90;;;;;;5063478;28;38337;-80
2023/12/16 20:24:50;;;;;;;15.93;6.70;;;10.90;99.90;;;;;;5063945;28;39412;-82
2023/12/16 20:27:16;;;;;;;12.87;6.27;;;10.90;99.90;;;;;;5064155;28;37121;-81
2023/12/16 20:29:45;;;;;;;13.23;6.30;;;10.90;99.90;;;;;;5063806;28;36730;-82
2023/12/16 20:32:16;;;;;;;16.07;5.80;;;10.90;99.90;;;;;;5060317;28;37668;-80
2023/12/16 20:34:45;;;;;;;13.37;7.20;;;10.90;99.90;;;;;;5081028;28;41350;-81
2023/12/16 20:37:12;;;;;;;19.10;6.23;;;10.90;99.90;;;;;;5062448;28;39571;-80
2023/12/16 20:42:24;;;;;;;16.20;6.53;;;10.90;99.90;;;;;;5062242;28;39083;-81
2023/12/16 20:44:50;;;;;;;18.70;5.40;;;10.90;99.90;;;;;;5063515;28;38840;-80
2023/12/16 20:47:16;;;;;;;15.93;5.90;;;10.90;99.90;;;;;;5065031;28;39112;-80
2023/12/16 20:49:42;;;;;;;14.10;5.20;;;10.90;99.90;;;;;;5065675;28;37435;-81
2023/12/16 20:52:08;;;;;;;14.00;5.33;;;10.90;99.90;;;;;;5059407;28;37406;-80
2023/12/16 20:54:39;;;;;;;13.60;5.33;;;10.90;99.90;;;;;;5057889;28;39867;-81
2023/12/16 20:57:05;;;;;;;16.17;5.03;;;10.90;99.90;;;;;;5062247;28;39249;-84
2023/12/16 20:59:32;;;;;;;16.53;5.50;;;10.90;99.90;;;;;;5061109;28;37485;-80
2023/12/16 21:02:54;;;;;;;15.33;6.17;;;10.90;99.90;;;;;;5057946;28;35441;-82
2023/12/16 21:05:20;;;;;;;15.07;4.83;;;10.90;99.90;;;;;;5050327;28;47617;-82
2023/12/16 21:07:47;;;;;;;12.47;4.53;;;10.90;99.90;;;;;;5054885;28;37768;-80
2023/12/16 21:10:13;;;;;;;15.87;5.03;;;10.90;99.90;;;;;;5056608;28;38246;-80
2023/12/16 21:12:39;;;;;;;14.90;4.30;;;10.80;99.90;;;;;;5060225;28;37327;-81
2023/12/16 21:15:09;;;;;;;14.93;4.17;;;10.80;99.90;;;;;;5051749;28;39598;-81
2023/12/16 21:17:36;;;;;;;15.40;4.17;;;10.80;99.90;;;;;;5059670;28;39515;-80
2023/12/16 21:20:09;;;;;;;23.33;4.33;;;10.80;99.90;;;;;;5057383;28;38570;-82
2023/12/16 21:22:36;;;;;;;16.67;3.93;;;10.80;99.90;;;;;;5057739;28;47478;-81
2023/12/16 21:25:03;;;;;;;11.20;3.63;;;10.80;99.90;;;;;;5062460;28;38595;-80
2023/12/16 21:27:29;;;;;;;14.20;4.03;;;10.80;99.90;;;;;;5063427;28;37480;-81
2023/12/16 21:29:55;;;;;;;18.23;4.25;;;10.80;99.90;;;;;;5061031;28;36786;-82
2023/12/16 21:32:21;;;;;;;10.30;3.03;;;10.80;99.90;;;;;;5061734;28;36079;-80
2023/12/16 21:34:48;;;;;;;11.47;2.93;;;10.80;99.90;;;;;;5064212;28;39360;-80
2023/12/16 21:37:14;;;;;;;18.90;4.10;;;10.80;99.90;;;;;;5062203;28;39469;-81
2023/12/16 21:39:40;;;;;;;16.83;4.10;;;10.80;99.90;;;;;;5065047;28;36778;-80
2023/12/16 21:42:08;;;;;;;12.10;3.50;;;10.80;99.90;;;;;;5064628;28;38166;-80
2023/12/16 21:44:36;;;;;;;9.60;3.47;;;10.80;99.90;;;;;;5061650;28;38003;-81
2023/12/16 21:47:03;;;;;;;14.03;3.57;;;10.80;99.90;;;;;;5060270;28;37712;-81
2023/12/16 21:49:29;;;;;;;10.40;4.10;;;10.90;99.90;;;;;;5058926;28;37693;-79
2023/12/16 21:51:55;;;;;;;11.77;3.50;;;10.90;99.90;;;;;;5065900;28;37340;-80
2023/12/16 21:54:21;;;;;;;13.40;3.53;;;10.90;99.90;;;;;;5057833;28;38178;-80
2023/12/16 21:56:47;;;;;;;9.63;3.73;;;10.90;99.90;;;;;;5062379;28;37171;-81
2023/12/16 21:59:14;;;;;;;12.07;5.00;;;10.90;99.90;;;;;;5055076;28;36833;-81
2023/12/16 22:01:40;;;;;;;15.93;3.90;;;10.90;99.90;;;;;;5061777;28;37283;-81
2023/12/16 22:04:06;;;;;;;12.00;3.30;;;10.90;99.90;;;;;;5057383;28;38843;-79
2023/12/16 22:06:33;;;;;;;13.40;3.80;;;10.90;99.90;;;;;;5056834;28;39432;-79
2023/12/16 22:08:59;;;;;;;13.90;3.40;;;10.90;99.90;;;;;;5059082;28;37590;-79
2023/12/16 22:11:25;;;;;;;15.43;3.50;;;10.90;99.90;;;;;;5056466;28;36810;-81
2023/12/16 22:13:51;;;;;;;19.53;3.40;;;10.90;99.90;;;;;;5061602;28;37829;-79
2023/12/16 22:16:18;;;;;;;17.17;4.40;;;10.90;99.90;;;;;;5055629;28;38803;-80
2023/12/16 22:18:44;;;;;;;10.43;3.57;;;10.90;99.90;;;;;;5063369;28;37111;-80
2023/12/16 22:21:10;;;;;;;11.97;4.17;;;10.90;99.90;;;;;;5067743;28;36394;-78
2023/12/16 22:23:37;;;;;;;17.67;4.90;;;10.90;99.90;;;;;;5066794;28;39476;-80
2023/12/16 22:26:04;;;;;;;14.57;4.07;;;10.90;99.90;;;;;;5065740;28;37564;-80
2023/12/16 22:28:30;;;;;;;14.80;4.30;;;10.90;99.90;;;;;;5064787;28;37734;-79
2023/12/16 22:30:59;;;;;;;14.90;4.37;;;10.90;99.90;;;;;;5076217;28;36269;-78
2023/12/16 22:33:27;;;;;;;11.03;4.77;;;10.90;99.90;;;;;;5069565;28;38806;-80
2023/12/16 22:35:53;;;;;;;15.10;4.90;;;10.90;99.90;;;;;;5067965;28;37345;-80
2023/12/16 22:38:19;;;;;;;16.50;5.17;;;10.90;99.90;;;;;;5083293;28;37794;-79
2023/12/16 22:40:45;;;;;;;15.77;5.30;;;10.90;99.90;;;;;;5063405;28;37119;-79
2023/12/16 22:43:11;;;;;;;21.50;5.63;;;10.90;99.90;;;;;;5068199;28;38769;-79
2023/12/16 22:45:37;;;;;;;16.37;4.37;;;10.90;99.90;;;;;;5068771;28;38539;-79
2023/12/16 22:48:04;;;;;;;16.60;5.73;;;10.80;99.90;;;;;;5061712;28;36627;-80
2023/12/16 22:50:30;;;;;;;18.97;5.40;;;10.80;99.90;;;;;;5067255;28;38005;-83
2023/12/16 22:52:56;;;;;;;18.13;5.23;;;10.80;99.90;;;;;;5064595;28;39892;-81
2023/12/16 22:55:22;;;;;;;20.27;5.60;;;10.80;99.90;;;;;;5067198;28;37811;-80
2023/12/16 22:57:48;;;;;;;19.23;4.77;;;10.80;99.90;;;;;;5059710;28;36758;-81
2023/12/16 23:00:30;;;;;;;17.83;5.80;;;10.90;99.90;;;;;;5064019;28;38306;-79
2023/12/16 23:02:59;;;;;;;19.88;6.53;;;10.80;99.90;;;;;;5064323;28;47092;-79
2023/12/16 23:05:25;;;;;;;15.47;5.03;;;10.80;99.90;;;;;;5059700;28;38482;-79
2023/12/16 23:07:51;;;;;;;19.37;5.07;;;10.80;99.90;;;;;;5065571;28;37431;-80
2023/12/16 23:10:18;;;;;;;19.10;4.90;;;10.90;99.90;;;;;;5063969;28;36125;-80
2023/12/16 23:12:44;;;;;;;16.97;4.97;;;10.90;99.90;;;;;;5052544;28;38015;-81
2023/12/16 23:15:10;;;;;;;13.03;4.53;;;10.90;99.90;;;;;;5080963;28;38407;-80
2023/12/16 23:17:37;;;;;;;22.00;4.70;;;10.90;99.90;;;;;;5066119;28;36466;-79
2023/12/16 23:20:06;;;;;;;14.43;4.33;;;10.90;99.90;;;;;;5064872;28;36582;-79
2023/12/16 23:22:32;;;;;;;16.13;4.60;;;10.90;99.90;;;;;;5066665;28;46997;-81
2023/12/16 23:24:58;;;;;;;13.73;3.90;;;10.90;99.90;;;;;;5067903;28;38344;-81
2023/12/16 23:27:25;;;;;;;15.80;4.43;;;10.90;99.90;;;;;;5065175;28;36669;-81
2023/12/16 23:29:51;;;;;;;13.90;3.80;;;10.90;99.90;;;;;;5061231;28;35892;-80
2023/12/16 23:32:17;;;;;;;15.20;4.57;;;10.90;99.90;;;;;;5048904;28;37966;-80
2023/12/16 23:34:43;;;;;;;12.10;4.03;;;10.90;99.90;;;;;;5059397;28;37432;-79
2023/12/16 23:37:09;;;;;;;10.90;3.53;;;10.90;99.90;;;;;;5066717;28;36718;-80
2023/12/16 23:39:35;;;;;;;11.87;3.90;;;10.90;99.90;;;;;;5058216;28;36930;-80
2023/12/16 23:42:02;;;;;;;15.60;3.73;;;10.90;99.90;;;;;;5065425;28;39395;-80
2023/12/16 23:44:28;;;;;;;15.50;5.10;;;10.90;99.90;;;;;;5065689;28;38515;-80
2023/12/16 23:46:54;;;;;;;10.80;3.13;;;10.90;99.90;;;;;;5061129;28;38049;-79
2023/12/16 23:49:20;;;;;;;15.40;3.70;;;10.90;99.90;;;;;;5059803;28;38353;-79
2023/12/16 23:51:46;;;;;;;14.63;3.43;;;10.90;99.90;;;;;;5058967;28;37863;-79
2023/12/16 23:54:13;;;;;;;9.87;3.83;;;10.90;99.90;;;;;;5065347;28;37192;-79
2023/12/16 23:56:39;;;;;;;15.03;3.50;;;10.90;99.90;;;;;;5064765;28;37209;-81
2023/12/16 23:59:05;;;;;;;13.97;3.37;;;10.90;99.90;;;;;;5063022;28;36211;-78
